sensor_id;sensor_type;location;lat;lon;timestamp;P1;durP1;ratioP1;P2;durP2;ratioP2
7444;SDS011;3764;48.126;11.594;2022-07-23T00:01:29;10.63;;;8.93;;
7444;SDS011;3764;48.126;11.594;2022-07-23T00:03:56;8.83;;;7.93;;
7444;SDS011;3764;48.126;11.594;2022-07-23T00:06:23;9.03;;;8.13;;
7444;SDS011;3764;48.126;11.594;2022-07-23T00:08:52;9.80;;;8.17;;
7444;SDS011;3764;48.126;11.594;2022-07-23T00:11:19;8.30;;;7.50;;
7444;SDS011;3764;48.126;11.594;2022-07-23T00:13:48;8.30;;;7.60;;
7444;SDS011;3764;48.126;11.594;2022-07-23T00:16:15;9.27;;;8.37;;
7444;SDS011;3764;48.126;11.594;2022-07-23T00:18:42;9.37;;;8.40;;
7444;SDS011;3764;48.126;11.594;2022-07-23T00:21:09;9.77;;;8.40;;
7444;SDS011;3764;48.126;11.594;2022-07-23T00:23:36;8.73;;;7.80;;
7444;SDS011;3764;48.126;11.594;2022-07-23T00:26:05;8.57;;;7.67;;
7444;SDS011;3764;48.126;11.594;2022-07-23T00:28:33;9.03;;;8.23;;
7444;SDS011;3764;48.126;11.594;2022-07-23T00:31:00;7.87;;;7.07;;
7444;SDS011;3764;48.126;11.594;2022-07-23T00:33:27;7.83;;;7.13;;
7444;SDS011;3764;48.126;11.594;2022-07-23T00:35:54;9.77;;;8.25;;
7444;SDS011;3764;48.126;11.594;2022-07-23T00:38:21;8.40;;;7.60;;
7444;SDS011;3764;48.126;11.594;2022-07-23T00:40:48;8.90;;;8.00;;
7444;SDS011;3764;48.126;11.594;2022-07-23T00:43:18;8.87;;;7.60;;
7444;SDS011;3764;48.126;11.594;2022-07-23T00:45:46;7.53;;;6.80;;
7444;SDS011;3764;48.126;11.594;2022-07-23T00:48:13;8.70;;;6.93;;
7444;SDS011;3764;48.126;11.594;2022-07-23T00:50:40;7.50;;;6.70;;
7444;SDS011;3764;48.126;11.594;2022-07-23T00:53:08;8.97;;;8.10;;
7444;SDS011;3764;48.126;11.594;2022-07-23T00:55:36;8.30;;;7.50;;
7444;SDS011;3764;48.126;11.594;2022-07-23T00:58:04;8.87;;;8.03;;
7444;SDS011;3764;48.126;11.594;2022-07-23T01:00:34;8.10;;;7.20;;
7444;SDS011;3764;48.126;11.594;2022-07-23T01:03:01;8.83;;;7.93;;
7444;SDS011;3764;48.126;11.594;2022-07-23T01:05:28;8.53;;;7.57;;
7444;SDS011;3764;48.126;11.594;2022-07-23T01:07:55;8.30;;;7.50;;
7444;SDS011;3764;48.126;11.594;2022-07-23T01:10:23;8.80;;;7.90;;
7444;SDS011;3764;48.126;11.594;2022-07-23T01:13:00;10.07;;;7.67;;
7444;SDS011;3764;48.126;11.594;2022-07-23T01:15:28;7.80;;;7.03;;
7444;SDS011;3764;48.126;11.594;2022-07-23T01:17:57;8.07;;;7.27;;
7444;SDS011;3764;48.126;11.594;2022-07-23T01:20:24;9.00;;;8.20;;
7444;SDS011;3764;48.126;11.594;2022-07-23T01:22:53;11.37;;;8.77;;
7444;SDS011;3764;48.126;11.594;2022-07-23T01:25:20;11.23;;;10.00;;
7444;SDS011;3764;48.126;11.594;2022-07-23T01:27:48;15.30;;;9.17;;
7444;SDS011;3764;48.126;11.594;2022-07-23T01:30:15;14.37;;;9.73;;
7444;SDS011;3764;48.126;11.594;2022-07-23T01:32:42;11.23;;;9.67;;
7444;SDS011;3764;48.126;11.594;2022-07-23T01:35:09;22.70;;;9.70;;
7444;SDS011;3764;48.126;11.594;2022-07-23T01:37:36;16.50;;;8.70;;
7444;SDS011;3764;48.126;11.594;2022-07-23T01:40:06;8.53;;;6.43;;
7444;SDS011;3764;48.126;11.594;2022-07-23T01:42:33;16.23;;;6.27;;
7444;SDS011;3764;48.126;11.594;2022-07-23T01:45:01;7.07;;;5.20;;
7444;SDS011;3764;48.126;11.594;2022-07-23T01:47:29;4.93;;;4.43;;
7444;SDS011;3764;48.126;11.594;2022-07-23T01:49:57;6.80;;;5.83;;
7444;SDS011;3764;48.126;11.594;2022-07-23T01:52:24;9.57;;;6.50;;
7444;SDS011;3764;48.126;11.594;2022-07-23T01:54:51;6.73;;;6.03;;
7444;SDS011;3764;48.126;11.594;2022-07-23T01:57:19;7.00;;;6.30;;
7444;SDS011;3764;48.126;11.594;2022-07-23T01:59:47;8.50;;;6.47;;
7444;SDS011;3764;48.126;11.594;2022-07-23T02:02:14;7.80;;;7.00;;
7444;SDS011;3764;48.126;11.594;2022-07-23T02:04:41;8.10;;;7.30;;
7444;SDS011;3764;48.126;11.594;2022-07-23T02:07:09;8.97;;;6.97;;
7444;SDS011;3764;48.126;11.594;2022-07-23T02:09:36;7.90;;;6.80;;
7444;SDS011;3764;48.126;11.594;2022-07-23T02:12:03;8.27;;;7.37;;
7444;SDS011;3764;48.126;11.594;2022-07-23T02:14:32;9.23;;;8.17;;
7444;SDS011;3764;48.126;11.594;2022-07-23T02:16:59;7.27;;;6.57;;
7444;SDS011;3764;48.126;11.594;2022-07-23T02:19:26;8.47;;;6.60;;
7444;SDS011;3764;48.126;11.594;2022-07-23T02:21:53;7.83;;;5.70;;
7444;SDS011;3764;48.126;11.594;2022-07-23T02:24:20;5.63;;;5.13;;
7444;SDS011;3764;48.126;11.594;2022-07-23T02:26:48;7.87;;;7.17;;
7444;SDS011;3764;48.126;11.594;2022-07-23T02:29:15;7.90;;;5.13;;
7444;SDS011;3764;48.126;11.594;2022-07-23T02:31:43;7.17;;;4.90;;
7444;SDS011;3764;48.126;11.594;2022-07-23T02:34:13;6.67;;;4.53;;
7444;SDS011;3764;48.126;11.594;2022-07-23T02:36:40;4.20;;;3.63;;
7444;SDS011;3764;48.126;11.594;2022-07-23T02:39:07;5.60;;;4.53;;
7444;SDS011;3764;48.126;11.594;2022-07-23T02:41:34;4.30;;;3.77;;
7444;SDS011;3764;48.126;11.594;2022-07-23T02:44:01;5.80;;;4.20;;
7444;SDS011;3764;48.126;11.594;2022-07-23T02:46:29;6.87;;;4.27;;
7444;SDS011;3764;48.126;11.594;2022-07-23T02:48:57;5.90;;;4.10;;
7444;SDS011;3764;48.126;11.594;2022-07-23T02:51:24;5.37;;;4.13;;
7444;SDS011;3764;48.126;11.594;2022-07-23T02:53:51;4.53;;;3.30;;
7444;SDS011;3764;48.126;11.594;2022-07-23T02:56:18;3.97;;;3.57;;
7444;SDS011;3764;48.126;11.594;2022-07-23T02:58:45;5.07;;;3.40;;
7444;SDS011;3764;48.126;11.594;2022-07-23T03:01:12;5.80;;;3.87;;
7444;SDS011;3764;48.126;11.594;2022-07-23T03:03:40;6.20;;;4.53;;
7444;SDS011;3764;48.126;11.594;2022-07-23T03:06:08;9.10;;;4.07;;
7444;SDS011;3764;48.126;11.594;2022-07-23T03:08:35;6.87;;;5.10;;
7444;SDS011;3764;48.126;11.594;2022-07-23T03:11:02;4.37;;;3.87;;
7444;SDS011;3764;48.126;11.594;2022-07-23T03:13:32;7.73;;;4.53;;
7444;SDS011;3764;48.126;11.594;2022-07-23T03:15:59;6.30;;;4.87;;
7444;SDS011;3764;48.126;11.594;2022-07-23T03:18:26;6.50;;;5.13;;
7444;SDS011;3764;48.126;11.594;2022-07-23T03:20:53;5.90;;;4.80;;
7444;SDS011;3764;48.126;11.594;2022-07-23T03:23:21;5.97;;;4.97;;
7444;SDS011;3764;48.126;11.594;2022-07-23T03:25:48;5.87;;;5.27;;
7444;SDS011;3764;48.126;11.594;2022-07-23T03:28:16;6.20;;;4.90;;
7444;SDS011;3764;48.126;11.594;2022-07-23T03:30:43;8.27;;;5.33;;
7444;SDS011;3764;48.126;11.594;2022-07-23T03:33:11;6.13;;;5.53;;
7444;SDS011;3764;48.126;11.594;2022-07-23T03:35:39;7.10;;;4.90;;
7444;SDS011;3764;48.126;11.594;2022-07-23T03:38:06;7.10;;;6.40;;
7444;SDS011;3764;48.126;11.594;2022-07-23T03:40:34;6.37;;;5.23;;
7444;SDS011;3764;48.126;11.594;2022-07-23T03:43:02;6.40;;;5.40;;
7444;SDS011;3764;48.126;11.594;2022-07-23T03:45:29;6.03;;;5.50;;
7444;SDS011;3764;48.126;11.594;2022-07-23T03:47:56;5.70;;;5.10;;
7444;SDS011;3764;48.126;11.594;2022-07-23T03:50:23;7.07;;;6.37;;
7444;SDS011;3764;48.126;11.594;2022-07-23T03:52:50;7.60;;;6.50;;
7444;SDS011;3764;48.126;11.594;2022-07-23T03:55:17;6.90;;;6.20;;
7444;SDS011;3764;48.126;11.594;2022-07-23T03:57:46;7.80;;;6.40;;
7444;SDS011;3764;48.126;11.594;2022-07-23T04:00:13;6.53;;;5.60;;
7444;SDS011;3764;48.126;11.594;2022-07-23T04:02:41;6.20;;;5.50;;
7444;SDS011;3764;48.126;11.594;2022-07-23T04:05:08;6.90;;;5.30;;
7444;SDS011;3764;48.126;11.594;2022-07-23T04:07:35;10.23;;;6.70;;
7444;SDS011;3764;48.126;11.594;2022-07-23T04:10:03;6.60;;;6.00;;
7444;SDS011;3764;48.126;11.594;2022-07-23T04:12:30;7.40;;;6.60;;
7444;SDS011;3764;48.126;11.594;2022-07-23T04:14:59;6.83;;;6.13;;
7444;SDS011;3764;48.126;11.594;2022-07-23T04:17:26;7.53;;;6.03;;
7444;SDS011;3764;48.126;11.594;2022-07-23T04:19:53;7.10;;;6.40;;
7444;SDS011;3764;48.126;11.594;2022-07-23T04:22:20;6.43;;;5.83;;
7444;SDS011;3764;48.126;11.594;2022-07-23T04:24:47;7.10;;;6.20;;
7444;SDS011;3764;48.126;11.594;2022-07-23T04:27:15;6.00;;;5.40;;
7444;SDS011;3764;48.126;11.594;2022-07-23T04:29:42;6.30;;;5.43;;
7444;SDS011;3764;48.126;11.594;2022-07-23T04:32:11;7.70;;;6.90;;
7444;SDS011;3764;48.126;11.594;2022-07-23T04:34:38;6.37;;;5.77;;
7444;SDS011;3764;48.126;11.594;2022-07-23T04:37:05;6.97;;;5.57;;
7444;SDS011;3764;48.126;11.594;2022-07-23T04:39:32;10.10;;;6.40;;
7444;SDS011;3764;48.126;11.594;2022-07-23T04:41:59;9.43;;;6.83;;
7444;SDS011;3764;48.126;11.594;2022-07-23T04:44:26;7.43;;;6.63;;
7444;SDS011;3764;48.126;11.594;2022-07-23T04:46:53;7.23;;;6.53;;
7444;SDS011;3764;48.126;11.594;2022-07-23T04:49:22;6.73;;;6.07;;
7444;SDS011;3764;48.126;11.594;2022-07-23T04:51:49;7.40;;;6.70;;
7444;SDS011;3764;48.126;11.594;2022-07-23T04:54:16;8.03;;;6.57;;
7444;SDS011;3764;48.126;11.594;2022-07-23T04:56:43;8.00;;;6.17;;
7444;SDS011;3764;48.126;11.594;2022-07-23T04:59:10;7.63;;;6.93;;
7444;SDS011;3764;48.126;11.594;2022-07-23T05:01:37;8.57;;;6.30;;
7444;SDS011;3764;48.126;11.594;2022-07-23T05:04:04;6.60;;;5.93;;
7444;SDS011;3764;48.126;11.594;2022-07-23T05:06:33;8.10;;;7.30;;
7444;SDS011;3764;48.126;11.594;2022-07-23T05:09:00;9.00;;;8.10;;
7444;SDS011;3764;48.126;11.594;2022-07-23T05:11:27;8.83;;;6.77;;
7444;SDS011;3764;48.126;11.594;2022-07-23T05:13:54;7.83;;;6.30;;
7444;SDS011;3764;48.126;11.594;2022-07-23T05:16:21;7.77;;;6.97;;
7444;SDS011;3764;48.126;11.594;2022-07-23T05:18:48;7.60;;;6.90;;
7444;SDS011;3764;48.126;11.594;2022-07-23T05:21:16;7.77;;;6.80;;
7444;SDS011;3764;48.126;11.594;2022-07-23T05:23:44;7.80;;;7.00;;
7444;SDS011;3764;48.126;11.594;2022-07-23T05:26:11;7.70;;;6.90;;
7444;SDS011;3764;48.126;11.594;2022-07-23T05:28:39;9.10;;;6.60;;
7444;SDS011;3764;48.126;11.594;2022-07-23T05:31:06;7.73;;;6.63;;
7444;SDS011;3764;48.126;11.594;2022-07-23T05:33:33;8.37;;;7.57;;
7444;SDS011;3764;48.126;11.594;2022-07-23T05:36:00;8.13;;;7.30;;
7444;SDS011;3764;48.126;11.594;2022-07-23T05:38:28;8.20;;;7.40;;
7444;SDS011;3764;48.126;11.594;2022-07-23T05:40:56;8.37;;;7.57;;
7444;SDS011;3764;48.126;11.594;2022-07-23T05:43:23;7.73;;;6.97;;
7444;SDS011;3764;48.126;11.594;2022-07-23T05:45:50;8.13;;;7.30;;
7444;SDS011;3764;48.126;11.594;2022-07-23T05:48:18;9.37;;;7.83;;
7444;SDS011;3764;48.126;11.594;2022-07-23T05:50:46;9.80;;;7.03;;
7444;SDS011;3764;48.126;11.594;2022-07-23T05:53:13;8.37;;;7.30;;
7444;SDS011;3764;48.126;11.594;2022-07-23T05:55:41;9.20;;;7.70;;
7444;SDS011;3764;48.126;11.594;2022-07-23T05:58:09;9.50;;;7.97;;
7444;SDS011;3764;48.126;11.594;2022-07-23T06:00:36;8.47;;;7.63;;
7444;SDS011;3764;48.126;11.594;2022-07-23T06:03:03;23.87;;;8.90;;
7444;SDS011;3764;48.126;11.594;2022-07-23T06:05:30;9.83;;;7.50;;
7444;SDS011;3764;48.126;11.594;2022-07-23T06:07:57;9.27;;;7.73;;
7444;SDS011;3764;48.126;11.594;2022-07-23T06:10:24;9.23;;;8.03;;
7444;SDS011;3764;48.126;11.594;2022-07-23T06:12:52;10.53;;;8.47;;
7444;SDS011;3764;48.126;11.594;2022-07-23T06:15:20;10.60;;;8.03;;
7444;SDS011;3764;48.126;11.594;2022-07-23T06:17:47;9.90;;;8.33;;
7444;SDS011;3764;48.126;11.594;2022-07-23T06:20:14;9.63;;;8.67;;
7444;SDS011;3764;48.126;11.594;2022-07-23T06:22:41;10.70;;;8.23;;
7444;SDS011;3764;48.126;11.594;2022-07-23T06:25:08;13.80;;;9.53;;
7444;SDS011;3764;48.126;11.594;2022-07-23T06:27:35;9.43;;;8.53;;
7444;SDS011;3764;48.126;11.594;2022-07-23T06:30:03;10.57;;;9.47;;
7444;SDS011;3764;48.126;11.594;2022-07-23T06:32:32;9.40;;;8.50;;
7444;SDS011;3764;48.126;11.594;2022-07-23T06:34:59;9.73;;;8.67;;
7444;SDS011;3764;48.126;11.594;2022-07-23T06:37:26;9.70;;;8.67;;
7444;SDS011;3764;48.126;11.594;2022-07-23T06:39:53;9.20;;;8.30;;
7444;SDS011;3764;48.126;11.594;2022-07-23T06:42:21;10.27;;;8.37;;
7444;SDS011;3764;48.126;11.594;2022-07-23T06:44:48;10.97;;;9.87;;
7444;SDS011;3764;48.126;11.594;2022-07-23T06:47:15;9.27;;;8.37;;
7444;SDS011;3764;48.126;11.594;2022-07-23T06:49:43;11.10;;;9.80;;
7444;SDS011;3764;48.126;11.594;2022-07-23T06:52:10;9.00;;;8.10;;
7444;SDS011;3764;48.126;11.594;2022-07-23T06:54:37;13.13;;;8.30;;
7444;SDS011;3764;48.126;11.594;2022-07-23T06:57:04;9.37;;;8.40;;
7444;SDS011;3764;48.126;11.594;2022-07-23T06:59:32;27.87;;;9.50;;
7444;SDS011;3764;48.126;11.594;2022-07-23T07:02:01;13.37;;;8.80;;
7444;SDS011;3764;48.126;11.594;2022-07-23T07:04:28;12.03;;;8.23;;
7444;SDS011;3764;48.126;11.594;2022-07-23T07:06:57;11.23;;;8.17;;
7444;SDS011;3764;48.126;11.594;2022-07-23T07:09:24;10.10;;;9.10;;
7444;SDS011;3764;48.126;11.594;2022-07-23T07:11:51;9.07;;;8.17;;
7444;SDS011;3764;48.126;11.594;2022-07-23T07:14:18;7.73;;;6.97;;
7444;SDS011;3764;48.126;11.594;2022-07-23T07:16:45;8.53;;;7.73;;
7444;SDS011;3764;48.126;11.594;2022-07-23T07:19:12;8.50;;;7.63;;
7444;SDS011;3764;48.126;11.594;2022-07-23T07:21:39;9.57;;;7.73;;
7444;SDS011;3764;48.126;11.594;2022-07-23T07:24:08;9.90;;;8.87;;
7444;SDS011;3764;48.126;11.594;2022-07-23T07:26:35;11.17;;;8.53;;
7444;SDS011;3764;48.126;11.594;2022-07-23T07:29:03;18.53;;;8.97;;
7444;SDS011;3764;48.126;11.594;2022-07-23T07:31:31;13.47;;;8.50;;
7444;SDS011;3764;48.126;11.594;2022-07-23T07:33:58;10.50;;;9.43;;
7444;SDS011;3764;48.126;11.594;2022-07-23T07:36:25;12.23;;;8.70;;
7444;SDS011;3764;48.126;11.594;2022-07-23T07:38:52;9.47;;;8.47;;
7444;SDS011;3764;48.126;11.594;2022-07-23T07:41:21;10.47;;;9.37;;
7444;SDS011;3764;48.126;11.594;2022-07-23T07:43:49;11.40;;;9.77;;
7444;SDS011;3764;48.126;11.594;2022-07-23T07:46:16;11.53;;;8.60;;
7444;SDS011;3764;48.126;11.594;2022-07-23T07:48:44;11.57;;;8.40;;
7444;SDS011;3764;48.126;11.594;2022-07-23T07:51:11;10.20;;;8.70;;
7444;SDS011;3764;48.126;11.594;2022-07-23T07:53:38;9.80;;;8.80;;
7444;SDS011;3764;48.126;11.594;2022-07-23T07:56:05;9.10;;;7.90;;
7444;SDS011;3764;48.126;11.594;2022-07-23T07:58:34;9.97;;;8.97;;
7444;SDS011;3764;48.126;11.594;2022-07-23T08:01:01;11.70;;;9.10;;
7444;SDS011;3764;48.126;11.594;2022-07-23T08:03:28;13.90;;;9.60;;
7444;SDS011;3764;48.126;11.594;2022-07-23T08:05:55;10.17;;;8.13;;
7444;SDS011;3764;48.126;11.594;2022-07-23T08:08:22;11.13;;;9.30;;
7444;SDS011;3764;48.126;11.594;2022-07-23T08:10:50;11.50;;;9.20;;
7444;SDS011;3764;48.126;11.594;2022-07-23T08:13:17;11.40;;;8.80;;
7444;SDS011;3764;48.126;11.594;2022-07-23T08:15:45;8.93;;;8.13;;
7444;SDS011;3764;48.126;11.594;2022-07-23T08:18:12;10.43;;;9.00;;
7444;SDS011;3764;48.126;11.594;2022-07-23T08:20:40;10.00;;;9.00;;
7444;SDS011;3764;48.126;11.594;2022-07-23T08:23:07;10.90;;;8.63;;
7444;SDS011;3764;48.126;11.594;2022-07-23T08:25:35;11.83;;;9.33;;
7444;SDS011;3764;48.126;11.594;2022-07-23T08:28:04;13.00;;;8.83;;
7444;SDS011;3764;48.126;11.594;2022-07-23T08:30:33;12.73;;;8.73;;
7444;SDS011;3764;48.126;11.594;2022-07-23T08:33:03;9.93;;;8.57;;
7444;SDS011;3764;48.126;11.594;2022-07-23T08:35:33;9.70;;;8.53;;
7444;SDS011;3764;48.126;11.594;2022-07-23T08:38:02;9.50;;;8.03;;
7444;SDS011;3764;48.126;11.594;2022-07-23T08:40:31;10.43;;;8.50;;
7444;SDS011;3764;48.126;11.594;2022-07-23T08:43:00;10.60;;;8.63;;
7444;SDS011;3764;48.126;11.594;2022-07-23T08:45:31;11.13;;;9.03;;
7444;SDS011;3764;48.126;11.594;2022-07-23T08:48:09;9.27;;;8.27;;
7444;SDS011;3764;48.126;11.594;2022-07-23T08:50:39;9.30;;;8.30;;
7444;SDS011;3764;48.126;11.594;2022-07-23T08:53:10;11.70;;;8.53;;
7444;SDS011;3764;48.126;11.594;2022-07-23T08:55:37;11.93;;;9.00;;
7444;SDS011;3764;48.126;11.594;2022-07-23T08:58:05;9.40;;;8.40;;
7444;SDS011;3764;48.126;11.594;2022-07-23T09:00:32;9.60;;;8.63;;
7444;SDS011;3764;48.126;11.594;2022-07-23T09:02:59;9.23;;;8.23;;
7444;SDS011;3764;48.126;11.594;2022-07-23T09:05:28;10.80;;;8.97;;
7444;SDS011;3764;48.126;11.594;2022-07-23T09:08:08;10.30;;;8.03;;
7444;SDS011;3764;48.126;11.594;2022-07-23T09:10:44;8.77;;;7.97;;
7444;SDS011;3764;48.126;11.594;2022-07-23T09:13:29;10.37;;;8.17;;
7444;SDS011;3764;48.126;11.594;2022-07-23T09:15:59;8.73;;;7.77;;
7444;SDS011;3764;48.126;11.594;2022-07-23T09:18:28;8.63;;;7.83;;
7444;SDS011;3764;48.126;11.594;2022-07-23T09:21:08;9.13;;;8.20;;
7444;SDS011;3764;48.126;11.594;2022-07-23T09:23:47;9.00;;;8.03;;
7444;SDS011;3764;48.126;11.594;2022-07-23T09:26:33;8.80;;;7.90;;
7444;SDS011;3764;48.126;11.594;2022-07-23T09:29:06;8.20;;;7.40;;
7444;SDS011;3764;48.126;11.594;2022-07-23T09:31:43;8.83;;;7.83;;
7444;SDS011;3764;48.126;11.594;2022-07-23T09:34:15;8.97;;;8.17;;
7444;SDS011;3764;48.126;11.594;2022-07-23T09:36:46;9.10;;;7.73;;
7444;SDS011;3764;48.126;11.594;2022-07-23T09:39:14;9.07;;;8.27;;
7444;SDS011;3764;48.126;11.594;2022-07-23T09:41:48;12.57;;;11.23;;
7444;SDS011;3764;48.126;11.594;2022-07-23T09:44:15;11.87;;;9.73;;
7444;SDS011;3764;48.126;11.594;2022-07-23T09:46:44;12.83;;;11.40;;
7444;SDS011;3764;48.126;11.594;2022-07-23T09:49:15;9.07;;;8.27;;
7444;SDS011;3764;48.126;11.594;2022-07-23T09:51:55;8.13;;;7.37;;
7444;SDS011;3764;48.126;11.594;2022-07-23T09:54:27;8.10;;;7.40;;
7444;SDS011;3764;48.126;11.594;2022-07-23T09:57:01;9.10;;;7.70;;
7444;SDS011;3764;48.126;11.594;2022-07-23T09:59:31;8.40;;;7.23;;
7444;SDS011;3764;48.126;11.594;2022-07-23T10:02:00;8.80;;;6.57;;
7444;SDS011;3764;48.126;11.594;2022-07-23T10:04:28;8.20;;;7.40;;
7444;SDS011;3764;48.126;11.594;2022-07-23T10:06:58;8.43;;;7.13;;
7444;SDS011;3764;48.126;11.594;2022-07-23T10:09:27;7.70;;;6.90;;
7444;SDS011;3764;48.126;11.594;2022-07-23T10:11:56;7.60;;;6.67;;
7444;SDS011;3764;48.126;11.594;2022-07-23T10:14:35;9.77;;;7.07;;
7444;SDS011;3764;48.126;11.594;2022-07-23T10:17:03;7.80;;;7.10;;
7444;SDS011;3764;48.126;11.594;2022-07-23T10:19:31;7.57;;;6.60;;
7444;SDS011;3764;48.126;11.594;2022-07-23T10:22:00;7.67;;;6.97;;
7444;SDS011;3764;48.126;11.594;2022-07-23T10:24:39;8.17;;;7.37;;
7444;SDS011;3764;48.126;11.594;2022-07-23T10:27:20;8.00;;;7.23;;
7444;SDS011;3764;48.126;11.594;2022-07-23T10:30:09;12.23;;;10.03;;
7444;SDS011;3764;48.126;11.594;2022-07-23T10:32:43;8.87;;;6.63;;
7444;SDS011;3764;48.126;11.594;2022-07-23T10:35:19;9.23;;;6.77;;
7444;SDS011;3764;48.126;11.594;2022-07-23T10:37:55;9.50;;;7.40;;
7444;SDS011;3764;48.126;11.594;2022-07-23T10:40:28;8.70;;;7.50;;
7444;SDS011;3764;48.126;11.594;2022-07-23T10:42:58;8.70;;;7.20;;
7444;SDS011;3764;48.126;11.594;2022-07-23T10:45:28;7.50;;;6.70;;
7444;SDS011;3764;48.126;11.594;2022-07-23T10:48:10;7.23;;;6.53;;
7444;SDS011;3764;48.126;11.594;2022-07-23T10:50:40;6.67;;;5.73;;
7444;SDS011;3764;48.126;11.594;2022-07-23T10:53:09;7.97;;;5.77;;
7444;SDS011;3764;48.126;11.594;2022-07-23T10:55:39;7.33;;;5.63;;
7444;SDS011;3764;48.126;11.594;2022-07-23T10:58:19;6.77;;;6.17;;
7444;SDS011;3764;48.126;11.594;2022-07-23T11:00:47;10.27;;;6.73;;
7444;SDS011;3764;48.126;11.594;2022-07-23T11:03:28;6.30;;;5.77;;
7444;SDS011;3764;48.126;11.594;2022-07-23T11:05:58;7.23;;;6.63;;
7444;SDS011;3764;48.126;11.594;2022-07-23T11:08:27;7.57;;;6.80;;
7444;SDS011;3764;48.126;11.594;2022-07-23T11:10:55;8.83;;;6.97;;
7444;SDS011;3764;48.126;11.594;2022-07-23T11:13:39;7.93;;;7.13;;
7444;SDS011;3764;48.126;11.594;2022-07-23T11:16:12;8.10;;;6.10;;
7444;SDS011;3764;48.126;11.594;2022-07-23T11:18:59;7.30;;;6.27;;
7444;SDS011;3764;48.126;11.594;2022-07-23T11:21:48;7.40;;;6.70;;
7444;SDS011;3764;48.126;11.594;2022-07-23T11:24:18;8.23;;;7.40;;
7444;SDS011;3764;48.126;11.594;2022-07-23T11:26:48;7.37;;;6.70;;
7444;SDS011;3764;48.126;11.594;2022-07-23T11:29:42;7.63;;;6.83;;
7444;SDS011;3764;48.126;11.594;2022-07-23T11:35:18;7.93;;;6.80;;
7444;SDS011;3764;48.126;11.594;2022-07-23T11:37:50;8.23;;;7.43;;
7444;SDS011;3764;48.126;11.594;2022-07-23T11:40:25;7.80;;;7.00;;
7444;SDS011;3764;48.126;11.594;2022-07-23T11:42:57;7.77;;;6.97;;
7444;SDS011;3764;48.126;11.594;2022-07-23T11:45:29;7.80;;;7.00;;
7444;SDS011;3764;48.126;11.594;2022-07-23T11:47:58;9.77;;;7.20;;
7444;SDS011;3764;48.126;11.594;2022-07-23T11:50:25;7.27;;;6.57;;
7444;SDS011;3764;48.126;11.594;2022-07-23T11:52:52;8.13;;;7.43;;
7444;SDS011;3764;48.126;11.594;2022-07-23T11:55:20;8.10;;;7.30;;
7444;SDS011;3764;48.126;11.594;2022-07-23T11:57:50;9.33;;;8.43;;
7444;SDS011;3764;48.126;11.594;2022-07-23T12:00:19;8.63;;;7.40;;
7444;SDS011;3764;48.126;11.594;2022-07-23T12:02:48;8.67;;;7.87;;
7444;SDS011;3764;48.126;11.594;2022-07-23T12:05:17;8.77;;;7.50;;
7444;SDS011;3764;48.126;11.594;2022-07-23T12:07:45;8.80;;;8.00;;
7444;SDS011;3764;48.126;11.594;2022-07-23T12:10:16;9.47;;;8.00;;
7444;SDS011;3764;48.126;11.594;2022-07-23T12:12:45;8.77;;;7.90;;
7444;SDS011;3764;48.126;11.594;2022-07-23T12:15:16;12.70;;;7.90;;
7444;SDS011;3764;48.126;11.594;2022-07-23T12:17:46;11.67;;;8.30;;
7444;SDS011;3764;48.126;11.594;2022-07-23T12:20:15;9.63;;;7.77;;
7444;SDS011;3764;48.126;11.594;2022-07-23T12:22:44;9.13;;;8.20;;
7444;SDS011;3764;48.126;11.594;2022-07-23T12:25:13;8.50;;;7.70;;
7444;SDS011;3764;48.126;11.594;2022-07-23T12:27:42;8.00;;;7.20;;
7444;SDS011;3764;48.126;11.594;2022-07-23T12:30:21;9.07;;;8.10;;
7444;SDS011;3764;48.126;11.594;2022-07-23T12:32:50;9.30;;;8.40;;
7444;SDS011;3764;48.126;11.594;2022-07-23T12:35:19;7.67;;;6.97;;
7444;SDS011;3764;48.126;11.594;2022-07-23T12:37:48;9.33;;;8.43;;
7444;SDS011;3764;48.126;11.594;2022-07-23T12:40:30;8.87;;;7.97;;
7444;SDS011;3764;48.126;11.594;2022-07-23T12:42:59;9.87;;;7.20;;
7444;SDS011;3764;48.126;11.594;2022-07-23T12:45:42;9.40;;;7.67;;
7444;SDS011;3764;48.126;11.594;2022-07-23T12:48:15;10.27;;;7.90;;
7444;SDS011;3764;48.126;11.594;2022-07-23T12:50:44;9.47;;;8.67;;
7444;SDS011;3764;48.126;11.594;2022-07-23T12:53:17;10.20;;;8.00;;
7444;SDS011;3764;48.126;11.594;2022-07-23T12:55:45;12.00;;;7.73;;
7444;SDS011;3764;48.126;11.594;2022-07-23T12:58:14;10.13;;;8.53;;
7444;SDS011;3764;48.126;11.594;2022-07-23T13:03:33;9.43;;;8.53;;
7444;SDS011;3764;48.126;11.594;2022-07-23T13:06:03;8.80;;;7.80;;
7444;SDS011;3764;48.126;11.594;2022-07-23T13:08:32;8.30;;;7.50;;
7444;SDS011;3764;48.126;11.594;2022-07-23T13:11:00;19.40;;;15.03;;
7444;SDS011;3764;48.126;11.594;2022-07-23T13:13:28;8.97;;;7.57;;
7444;SDS011;3764;48.126;11.594;2022-07-23T13:15:56;9.43;;;7.10;;
7444;SDS011;3764;48.126;11.594;2022-07-23T13:18:26;8.83;;;7.97;;
7444;SDS011;3764;48.126;11.594;2022-07-23T13:20:54;9.07;;;7.97;;
7444;SDS011;3764;48.126;11.594;2022-07-23T13:23:22;12.67;;;8.40;;
7444;SDS011;3764;48.126;11.594;2022-07-23T13:25:49;25.00;;;19.50;;
7444;SDS011;3764;48.126;11.594;2022-07-23T13:28:17;9.60;;;8.70;;
7444;SDS011;3764;48.126;11.594;2022-07-23T13:30:45;9.17;;;8.20;;
7444;SDS011;3764;48.126;11.594;2022-07-23T13:33:15;10.33;;;8.27;;
7444;SDS011;3764;48.126;11.594;2022-07-23T13:35:44;9.50;;;8.60;;
7444;SDS011;3764;48.126;11.594;2022-07-23T13:38:12;12.73;;;8.93;;
7444;SDS011;3764;48.126;11.594;2022-07-23T13:40:40;12.90;;;8.10;;
7444;SDS011;3764;48.126;11.594;2022-07-23T13:43:09;9.83;;;8.50;;
7444;SDS011;3764;48.126;11.594;2022-07-23T13:45:38;8.63;;;7.60;;
7444;SDS011;3764;48.126;11.594;2022-07-23T13:48:06;9.60;;;8.60;;
7444;SDS011;3764;48.126;11.594;2022-07-23T13:50:33;10.40;;;7.80;;
7444;SDS011;3764;48.126;11.594;2022-07-23T13:53:02;9.13;;;8.23;;
7444;SDS011;3764;48.126;11.594;2022-07-23T13:55:30;10.20;;;9.17;;
7444;SDS011;3764;48.126;11.594;2022-07-23T13:57:58;8.20;;;7.40;;
7444;SDS011;3764;48.126;11.594;2022-07-23T14:00:26;9.07;;;8.10;;
7444;SDS011;3764;48.126;11.594;2022-07-23T14:02:55;9.03;;;8.17;;
7444;SDS011;3764;48.126;11.594;2022-07-23T14:05:24;9.07;;;8.17;;
7444;SDS011;3764;48.126;11.594;2022-07-23T14:07:51;8.93;;;8.03;;
7444;SDS011;3764;48.126;11.594;2022-07-23T14:10:20;8.87;;;8.00;;
7444;SDS011;3764;48.126;11.594;2022-07-23T14:12:49;8.60;;;7.70;;
7444;SDS011;3764;48.126;11.594;2022-07-23T14:15:21;8.13;;;7.33;;
7444;SDS011;3764;48.126;11.594;2022-07-23T14:17:49;9.07;;;7.80;;
7444;SDS011;3764;48.126;11.594;2022-07-23T14:20:16;7.60;;;6.90;;
7444;SDS011;3764;48.126;11.594;2022-07-23T14:22:43;9.03;;;7.90;;
7444;SDS011;3764;48.126;11.594;2022-07-23T14:25:11;8.43;;;7.73;;
7444;SDS011;3764;48.126;11.594;2022-07-23T14:27:40;9.03;;;8.13;;
7444;SDS011;3764;48.126;11.594;2022-07-23T14:30:07;9.40;;;7.57;;
7444;SDS011;3764;48.126;11.594;2022-07-23T14:32:35;9.20;;;7.67;;
7444;SDS011;3764;48.126;11.594;2022-07-23T14:35:03;11.00;;;9.37;;
7444;SDS011;3764;48.126;11.594;2022-07-23T14:37:31;10.10;;;7.80;;
7444;SDS011;3764;48.126;11.594;2022-07-23T14:39:58;8.40;;;7.43;;
7444;SDS011;3764;48.126;11.594;2022-07-23T14:42:25;8.97;;;8.07;;
7444;SDS011;3764;48.126;11.594;2022-07-23T14:44:54;7.70;;;7.00;;
7444;SDS011;3764;48.126;11.594;2022-07-23T14:47:21;10.00;;;9.00;;
7444;SDS011;3764;48.126;11.594;2022-07-23T14:49:48;8.90;;;7.43;;
7444;SDS011;3764;48.126;11.594;2022-07-23T14:52:15;8.80;;;7.80;;
7444;SDS011;3764;48.126;11.594;2022-07-23T14:54:42;8.67;;;7.50;;
7444;SDS011;3764;48.126;11.594;2022-07-23T14:57:09;11.43;;;9.90;;
7444;SDS011;3764;48.126;11.594;2022-07-23T14:59:36;12.60;;;8.47;;
7444;SDS011;3764;48.126;11.594;2022-07-23T15:02:05;9.50;;;8.53;;
7444;SDS011;3764;48.126;11.594;2022-07-23T15:04:32;7.30;;;6.67;;
7444;SDS011;3764;48.126;11.594;2022-07-23T15:06:59;11.20;;;8.20;;
7444;SDS011;3764;48.126;11.594;2022-07-23T15:09:26;10.17;;;8.30;;
7444;SDS011;3764;48.126;11.594;2022-07-23T15:11:54;8.67;;;7.87;;
7444;SDS011;3764;48.126;11.594;2022-07-23T15:14:21;11.20;;;9.27;;